createdAt,value
2023-04-18T00:00:49.575Z,6.22
2023-04-18T00:03:16.889Z,6.75
2023-04-18T00:05:44.302Z,6.00
2023-04-18T00:08:11.223Z,5.95
2023-04-18T00:10:38.201Z,6.57
2023-04-18T00:13:05.333Z,6.55
2023-04-18T00:15:32.538Z,6.82
2023-04-18T00:18:01.103Z,6.20
2023-04-18T00:20:28.088Z,6.03
2023-04-18T00:22:55.261Z,6.20
2023-04-18T00:25:22.320Z,5.50
2023-04-18T00:27:49.270Z,5.97
2023-04-18T00:30:17.721Z,5.18
2023-04-18T00:32:44.758Z,5.63
2023-04-18T00:35:11.744Z,5.32
2023-04-18T00:37:39.790Z,7.32
2023-04-18T00:40:09.137Z,5.68
2023-04-18T00:42:36.141Z,5.68
2023-04-18T00:45:03.160Z,6.15
2023-04-18T00:47:30.216Z,6.25
2023-04-18T00:50:08.931Z,5.65
2023-04-18T00:52:36.675Z,5.38
2023-04-18T00:55:07.240Z,6.40
2023-04-18T00:57:34.783Z,5.82
2023-04-18T01:00:10.053Z,6.00
2023-04-18T01:02:38.215Z,6.05
2023-04-18T01:05:06.388Z,6.20
2023-04-18T01:07:36.154Z,6.30
2023-04-18T01:10:04.454Z,5.70
2023-04-18T01:12:31.585Z,5.43
2023-04-18T01:15:01.125Z,6.22
2023-04-18T01:17:29.918Z,5.75
2023-04-18T01:19:57.121Z,6.20
2023-04-18T01:22:24.452Z,5.03
2023-04-18T01:24:51.402Z,5.57
2023-04-18T01:27:18.422Z,5.82
2023-04-18T01:29:45.859Z,5.15
2023-04-18T01:32:12.864Z,5.97
2023-04-18T01:34:42.730Z,6.47
2023-04-18T01:37:12.726Z,5.93
2023-04-18T01:39:40.502Z,6.63
2023-04-18T01:42:07.385Z,5.32
2023-04-18T01:44:34.400Z,6.47
2023-04-18T01:47:01.494Z,5.97
2023-04-18T01:49:28.529Z,5.22
2023-04-18T01:51:55.645Z,5.43
2023-04-18T01:54:22.643Z,5.70
2023-04-18T01:56:49.508Z,5.68
2023-04-18T01:59:16.818Z,5.50
2023-04-18T02:01:44.782Z,6.25
2023-04-18T02:04:12.073Z,6.13
2023-04-18T02:06:39.183Z,5.85
2023-04-18T02:09:06.208Z,5.90
2023-04-18T02:11:33.083Z,6.03
2023-04-18T02:14:03.035Z,5.78
2023-04-18T02:16:30.074Z,5.47
2023-04-18T02:19:04.581Z,5.60
2023-04-18T02:21:31.623Z,4.90
2023-04-18T02:23:58.525Z,6.10
2023-04-18T02:26:25.585Z,5.70
2023-04-18T02:28:52.560Z,6.32
2023-04-18T02:31:19.618Z,5.60
2023-04-18T02:33:50.106Z,5.95
2023-04-18T02:36:17.102Z,5.63
2023-04-18T02:38:45.131Z,6.00
2023-04-18T02:41:15.451Z,6.25
2023-04-18T02:43:42.375Z,5.85
2023-04-18T02:46:09.394Z,5.55
2023-04-18T02:48:36.414Z,5.72
2023-04-18T02:51:06.269Z,5.63
2023-04-18T02:53:35.756Z,5.60
2023-04-18T02:56:02.829Z,5.43
2023-04-18T02:58:50.086Z,5.95
2023-04-18T03:01:41.147Z,6.03
2023-04-18T03:04:13.851Z,6.28
2023-04-18T03:06:54.206Z,5.80
2023-04-18T03:09:21.841Z,5.47
2023-04-18T03:11:54.707Z,7.07
2023-04-18T03:14:25.712Z,5.97
2023-04-18T03:16:55.731Z,5.72
2023-04-18T03:19:27.303Z,5.30
2023-04-18T03:21:56.033Z,5.13
2023-04-18T03:24:23.049Z,6.22
2023-04-18T03:26:52.710Z,5.63
2023-04-18T03:29:23.241Z,5.25
2023-04-18T03:31:51.636Z,5.63
2023-04-18T03:34:18.671Z,5.95
2023-04-18T03:36:47.287Z,5.45
2023-04-18T03:39:15.058Z,6.28
2023-04-18T03:41:42.030Z,6.60
2023-04-18T03:44:09.539Z,5.78
2023-04-18T03:46:40.824Z,5.75
2023-04-18T03:49:09.317Z,6.38
2023-04-18T03:51:50.462Z,5.63
2023-04-18T03:54:18.426Z,6.88
2023-04-18T03:56:45.786Z,6.55
2023-04-18T03:59:13.935Z,6.10
2023-04-18T04:01:43.915Z,6.20
2023-04-18T04:04:12.403Z,6.22
2023-04-18T04:06:39.801Z,6.07
2023-04-18T04:09:06.943Z,5.32
2023-04-18T04:11:33.902Z,7.00
2023-04-18T04:14:01.510Z,5.00
2023-04-18T04:16:34.933Z,5.55
2023-04-18T04:19:02.595Z,7.45
2023-04-18T04:21:36.330Z,5.45
2023-04-18T04:24:04.396Z,5.70
2023-04-18T04:26:43.147Z,6.22
2023-04-18T04:29:16.351Z,6.22
2023-04-18T04:31:46.255Z,6.05
2023-04-18T04:34:17.039Z,6.15
2023-04-18T04:36:44.611Z,5.97
2023-04-18T04:39:13.598Z,6.35
2023-04-18T04:42:04.725Z,6.15
2023-04-18T04:44:43.222Z,6.53
2023-04-18T04:47:10.607Z,5.55
2023-04-18T04:49:39.281Z,5.70
2023-04-18T04:52:06.713Z,7.13
2023-04-18T04:54:33.833Z,6.90
2023-04-18T04:57:02.451Z,6.53
2023-04-18T04:59:30.208Z,6.35
2023-04-18T05:01:57.813Z,5.97
2023-04-18T05:04:25.815Z,7.35
2023-04-18T05:06:53.406Z,6.95
2023-04-18T05:09:20.602Z,6.53
2023-04-18T05:11:49.601Z,5.97
2023-04-18T05:14:17.878Z,5.93
2023-04-18T05:16:45.148Z,6.20
2023-04-18T05:19:12.379Z,6.05
2023-04-18T05:21:39.381Z,5.93
2023-04-18T05:24:06.387Z,6.38
2023-04-18T05:26:33.438Z,6.40
2023-04-18T05:29:00.341Z,6.35
2023-04-18T05:31:27.905Z,5.70
2023-04-18T05:33:54.963Z,6.38
2023-04-18T05:36:22.713Z,6.25
2023-04-18T05:38:49.761Z,6.13
2023-04-18T05:41:16.741Z,6.18
2023-04-18T05:43:48.243Z,5.75
2023-04-18T05:46:21.451Z,5.95
2023-04-18T05:48:48.448Z,6.10
2023-04-18T05:51:15.434Z,6.00
2023-04-18T05:53:42.482Z,5.72
2023-04-18T05:56:09.569Z,6.13
2023-04-18T05:58:37.658Z,6.88
2023-04-18T06:01:04.707Z,6.20
2023-04-18T06:03:31.928Z,6.65
2023-04-18T06:05:59.553Z,6.22
2023-04-18T06:08:26.712Z,6.78
2023-04-18T06:10:53.762Z,6.00
2023-04-18T06:13:21.791Z,6.03
2023-04-18T06:15:48.811Z,6.30
2023-04-18T06:18:15.842Z,5.50
2023-04-18T06:20:44.214Z,5.63
2023-04-18T06:23:11.213Z,5.30
2023-04-18T06:25:38.328Z,5.90
2023-04-18T06:28:05.558Z,6.70
2023-04-18T06:30:32.618Z,6.65
2023-04-18T06:32:59.807Z,6.93
2023-04-18T06:35:26.998Z,6.07
2023-04-18T06:37:53.925Z,6.75
2023-04-18T06:40:20.974Z,6.63
2023-04-18T06:42:48.008Z,5.47
2023-04-18T06:45:14.991Z,6.20
2023-04-18T06:47:41.955Z,6.25
2023-04-18T06:50:09.650Z,5.75
2023-04-18T06:52:40.876Z,6.07
2023-04-18T06:55:11.445Z,5.93
2023-04-18T06:57:39.110Z,6.20
2023-04-18T07:00:07.024Z,5.53
2023-04-18T07:02:36.340Z,6.10
2023-04-18T07:05:03.664Z,5.50
2023-04-18T07:07:31.643Z,5.25
2023-04-18T07:09:59.018Z,5.88
2023-04-18T07:12:26.117Z,5.85
2023-04-18T07:14:54.795Z,5.28
2023-04-18T07:17:21.892Z,5.82
2023-04-18T07:19:48.891Z,5.20
2023-04-18T07:22:15.844Z,5.43
2023-04-18T07:24:44.278Z,6.70
2023-04-18T07:27:11.330Z,5.60
2023-04-18T07:29:38.452Z,5.82
2023-04-18T07:32:08.171Z,5.35
2023-04-18T07:34:36.424Z,5.25
2023-04-18T07:37:03.679Z,4.97
2023-04-18T07:39:36.083Z,5.28
2023-04-18T07:42:04.733Z,5.35
2023-04-18T07:44:31.956Z,5.57
2023-04-18T07:46:59.517Z,5.75
2023-04-18T07:49:26.784Z,6.15
2023-04-18T07:51:53.754Z,5.60
2023-04-18T07:54:20.714Z,5.93
2023-04-18T07:56:47.722Z,5.95
2023-04-18T07:59:14.861Z,5.25
2023-04-18T08:01:42.112Z,5.40
2023-04-18T08:04:09.187Z,6.10
2023-04-18T08:06:36.394Z,5.28
2023-04-18T08:09:05.878Z,5.70
2023-04-18T08:11:34.279Z,5.57
2023-04-18T08:14:01.578Z,5.00
2023-04-18T08:16:29.028Z,5.03
2023-04-18T08:18:56.164Z,5.20
2023-04-18T08:21:23.176Z,5.25
2023-04-18T08:23:50.266Z,4.88
2023-04-18T08:26:17.274Z,5.28
2023-04-18T08:28:46.572Z,4.95
2023-04-18T08:31:15.352Z,5.50
2023-04-18T08:33:42.423Z,4.65
2023-04-18T08:36:10.176Z,4.38
2023-04-18T08:38:37.248Z,4.50
2023-04-18T08:41:04.217Z,4.60
2023-04-18T08:43:31.578Z,4.90
2023-04-18T08:46:00.390Z,4.90
2023-04-18T08:48:30.829Z,4.95
2023-04-18T08:50:59.226Z,4.45
2023-04-18T08:53:27.220Z,4.68
2023-04-18T08:55:58.278Z,5.20
2023-04-18T08:58:27.909Z,5.25
2023-04-18T09:00:55.550Z,4.70
2023-04-18T09:03:43.409Z,5.38
2023-04-18T09:06:16.536Z,4.75
2023-04-18T09:08:44.917Z,5.00
2023-04-18T09:11:31.940Z,5.15
2023-04-18T09:14:02.789Z,4.85
2023-04-18T09:16:46.998Z,4.38
2023-04-18T09:19:19.138Z,4.47
2023-04-18T09:21:47.560Z,5.20
2023-04-18T09:24:21.252Z,4.68
2023-04-18T09:26:50.052Z,4.70
2023-04-18T09:29:18.848Z,4.43
2023-04-18T09:32:02.387Z,4.53
2023-04-18T09:34:29.567Z,4.85
2023-04-18T09:37:10.611Z,4.70
2023-04-18T09:39:39.712Z,4.85
2023-04-18T09:42:07.081Z,5.00
2023-04-18T09:44:34.355Z,5.07
2023-04-18T09:47:01.674Z,4.35
2023-04-18T09:49:29.011Z,4.68
2023-04-18T09:51:56.473Z,5.10
2023-04-18T09:54:25.123Z,5.13
2023-04-18T09:56:54.585Z,5.43
2023-04-18T09:59:33.538Z,5.30
2023-04-18T10:02:03.734Z,5.00
2023-04-18T10:04:32.759Z,7.38
2023-04-18T10:07:01.022Z,5.32
2023-04-18T10:09:32.054Z,4.93
2023-04-18T10:12:00.131Z,5.18
2023-04-18T10:14:28.545Z,5.75
2023-04-18T10:16:56.358Z,4.47
2023-04-18T10:19:27.605Z,4.97
2023-04-18T10:22:02.420Z,5.57
2023-04-18T10:24:50.108Z,5.55
2023-04-18T10:27:19.078Z,5.45
2023-04-18T10:29:51.764Z,5.00
2023-04-18T10:32:20.335Z,4.97
2023-04-18T10:34:48.214Z,4.70
2023-04-18T10:37:17.893Z,7.97
2023-04-18T10:40:11.348Z,5.68
2023-04-18T10:42:47.275Z,5.85
2023-04-18T10:45:22.308Z,5.05
2023-04-18T10:47:50.213Z,5.75
2023-04-18T10:50:18.199Z,4.45
2023-04-18T10:52:45.151Z,4.97
2023-04-18T10:55:26.424Z,5.22
2023-04-18T10:57:56.356Z,5.47
2023-04-18T11:02:56.740Z,5.20
2023-04-18T11:05:27.158Z,5.07
2023-04-18T11:07:54.837Z,5.25
2023-04-18T11:10:24.672Z,4.82
2023-04-18T11:12:52.923Z,5.53
2023-04-18T11:15:22.734Z,4.80
2023-04-18T11:18:02.350Z,4.82
2023-04-18T11:20:37.341Z,5.22
2023-04-18T11:23:04.419Z,8.35
2023-04-18T11:25:36.743Z,5.18
2023-04-18T11:28:04.890Z,5.25
2023-04-18T11:30:41.894Z,5.18
2023-04-18T11:33:12.840Z,4.78
2023-04-18T11:35:41.785Z,5.53
2023-04-18T11:38:10.793Z,4.93
2023-04-18T11:40:38.248Z,5.80
2023-04-18T11:43:07.315Z,5.25
2023-04-18T11:45:34.506Z,5.00
2023-04-18T11:48:01.604Z,5.35
2023-04-18T11:50:28.673Z,4.95
2023-04-18T11:52:56.475Z,5.68
2023-04-18T11:55:25.410Z,5.53
2023-04-18T11:57:56.735Z,5.45
2023-04-18T12:00:42.134Z,4.97
2023-04-18T12:03:17.446Z,5.07
2023-04-18T12:05:45.485Z,5.22
2023-04-18T12:08:22.293Z,7.65
2023-04-18T12:10:53.784Z,5.93
2023-04-18T12:13:31.752Z,5.57
2023-04-18T12:16:02.423Z,5.35
2023-04-18T12:18:30.106Z,5.07
2023-04-18T12:20:58.837Z,5.20
2023-04-18T12:23:37.808Z,5.63
2023-04-18T12:26:21.256Z,5.30
2023-04-18T12:28:51.589Z,5.05
2023-04-18T12:31:18.772Z,6.35
2023-04-18T12:33:45.801Z,6.18
2023-04-18T12:36:12.966Z,5.10
2023-04-18T12:38:39.958Z,5.28
2023-04-18T12:41:07.064Z,5.45
2023-04-18T12:43:34.034Z,5.10
2023-04-18T12:46:01.461Z,5.90
2023-04-18T12:48:28.505Z,4.97
2023-04-18T12:50:55.755Z,5.10
2023-04-18T12:53:22.815Z,5.47
2023-04-18T12:55:49.875Z,7.70
2023-04-18T12:58:18.911Z,5.57
2023-04-18T13:00:46.420Z,5.15
2023-04-18T13:03:13.754Z,5.57
2023-04-18T13:05:41.321Z,5.40
2023-04-18T13:08:16.848Z,5.25
2023-04-18T13:10:46.336Z,4.72
2023-04-18T13:13:13.549Z,5.13
2023-04-18T13:15:40.892Z,5.53
2023-04-18T13:18:08.179Z,4.88
2023-04-18T13:20:36.877Z,4.60
2023-04-18T13:23:04.054Z,4.78
2023-04-18T13:25:32.803Z,5.13
2023-04-18T13:28:01.355Z,5.47
2023-04-18T13:30:32.215Z,5.93
2023-04-18T13:32:59.311Z,4.88
2023-04-18T13:35:26.316Z,4.63
2023-04-18T13:37:53.281Z,5.43
2023-04-18T13:40:20.338Z,5.13
2023-04-18T13:42:47.315Z,4.65
2023-04-18T13:45:14.253Z,4.45
2023-04-18T13:47:41.379Z,5.50
2023-04-18T13:50:09.114Z,5.05
2023-04-18T13:52:36.597Z,5.68
2023-04-18T13:55:04.221Z,5.05
2023-04-18T13:57:35.663Z,4.78
2023-04-18T14:00:02.625Z,5.00
2023-04-18T14:02:39.050Z,4.85
2023-04-18T14:05:09.464Z,5.85
2023-04-18T14:07:38.534Z,5.07
2023-04-18T14:10:06.047Z,5.78
2023-04-18T14:12:33.070Z,4.82
2023-04-18T14:15:00.156Z,5.45
2023-04-18T14:17:27.165Z,5.53
2023-04-18T14:19:54.316Z,4.55
2023-04-18T14:22:21.383Z,4.38
2023-04-18T14:24:48.378Z,4.95
2023-04-18T14:27:15.335Z,4.38
2023-04-18T14:29:42.294Z,4.78
2023-04-18T14:32:12.111Z,4.82
2023-04-18T14:34:39.178Z,5.57
2023-04-18T14:37:06.563Z,5.57
2023-04-18T14:39:33.503Z,4.88
2023-04-18T14:42:01.668Z,4.93
2023-04-18T14:44:29.764Z,4.15
2023-04-18T14:46:56.849Z,4.78
2023-04-18T14:49:23.916Z,4.95
2023-04-18T14:51:51.143Z,4.78
2023-04-18T14:54:18.312Z,5.38
2023-04-18T14:56:48.225Z,4.90
2023-04-18T14:59:16.705Z,4.82
2023-04-18T15:01:46.808Z,4.80
2023-04-18T15:04:14.666Z,5.28
2023-04-18T15:06:42.426Z,5.22
2023-04-18T15:09:09.406Z,4.75
2023-04-18T15:11:38.396Z,4.82
2023-04-18T15:14:05.750Z,5.50
2023-04-18T15:16:32.852Z,5.22
2023-04-18T15:19:00.675Z,4.70
2023-04-18T15:21:27.998Z,5.97
2023-04-18T15:23:55.050Z,5.50
2023-04-18T15:26:22.103Z,5.05
2023-04-18T15:28:49.148Z,5.50
2023-04-18T15:31:16.726Z,5.38
2023-04-18T15:33:43.904Z,4.90
2023-04-18T15:36:10.842Z,5.93
2023-04-18T15:38:37.846Z,5.32
2023-04-18T15:41:04.868Z,5.68
2023-04-18T15:43:32.910Z,8.15
2023-04-18T15:46:01.020Z,5.40
2023-04-18T15:48:30.441Z,4.97
2023-04-18T15:50:57.425Z,5.47
2023-04-18T15:53:24.444Z,5.15
2023-04-18T15:55:53.635Z,5.28
2023-04-18T15:58:22.270Z,5.55
2023-04-18T16:00:50.479Z,5.45
2023-04-18T16:03:18.018Z,5.93
2023-04-18T16:05:45.093Z,5.50
2023-04-18T16:08:12.157Z,5.57
2023-04-18T16:10:39.092Z,5.63
2023-04-18T16:13:06.972Z,6.30
2023-04-18T16:15:41.886Z,5.95
2023-04-18T16:18:11.482Z,5.10
2023-04-18T16:20:38.692Z,5.68
2023-04-18T16:23:05.672Z,5.55
2023-04-18T16:25:32.745Z,6.05
2023-04-18T16:27:59.875Z,6.05
2023-04-18T16:30:26.940Z,6.38
2023-04-18T16:32:54.627Z,5.50
2023-04-18T16:35:21.752Z,5.70
2023-04-18T16:37:48.889Z,6.03
2023-04-18T16:40:16.574Z,6.45
2023-04-18T16:42:43.453Z,6.65
2023-04-18T16:45:10.657Z,6.28
2023-04-18T16:47:37.572Z,5.82
2023-04-18T16:50:05.045Z,5.88
2023-04-18T16:52:32.075Z,6.47
2023-04-18T16:54:59.086Z,6.53
2023-04-18T16:57:26.091Z,6.68
2023-04-18T16:59:53.014Z,6.03
2023-04-18T17:02:20.099Z,6.30
2023-04-18T17:04:47.738Z,6.28
2023-04-18T17:07:14.654Z,5.63
2023-04-18T17:09:41.933Z,6.13
2023-04-18T17:12:08.900Z,6.50
2023-04-18T17:14:37.330Z,6.80
2023-04-18T17:17:04.519Z,5.90
2023-04-18T17:19:31.635Z,6.32
2023-04-18T17:21:58.553Z,5.93
2023-04-18T17:24:25.613Z,7.22
2023-04-18T17:26:52.470Z,6.85
2023-04-18T17:29:19.360Z,6.18
2023-04-18T17:31:46.381Z,5.40
2023-04-18T17:34:13.411Z,6.30
2023-04-18T17:36:40.445Z,5.75
2023-04-18T17:39:07.698Z,6.57
2023-04-18T17:41:38.723Z,6.38
2023-04-18T17:44:07.798Z,6.38
2023-04-18T17:46:34.840Z,7.10
2023-04-18T17:49:01.980Z,6.15
2023-04-18T17:51:28.937Z,5.75
2023-04-18T17:53:56.046Z,5.43
2023-04-18T17:56:23.092Z,6.18
2023-04-18T17:58:50.129Z,6.55
2023-04-18T18:01:19.048Z,6.70
2023-04-18T18:03:47.316Z,6.07
2023-04-18T18:06:15.717Z,5.97
2023-04-18T18:08:43.426Z,5.50
2023-04-18T18:11:10.956Z,5.30
2023-04-18T18:13:39.295Z,5.63
2023-04-18T18:16:07.304Z,6.25
2023-04-18T18:18:34.746Z,6.00
2023-04-18T18:21:01.902Z,5.68
2023-04-18T18:23:29.323Z,6.68
2023-04-18T18:25:56.459Z,5.75
2023-04-18T18:28:23.531Z,5.97
2023-04-18T18:30:50.694Z,5.75
2023-04-18T18:33:17.715Z,6.35
2023-04-18T18:35:44.698Z,6.10
2023-04-18T18:38:11.709Z,5.85
2023-04-18T18:40:38.612Z,5.97
2023-04-18T18:43:05.802Z,5.55
2023-04-18T18:45:32.743Z,6.13
2023-04-18T18:47:59.780Z,5.97
2023-04-18T18:50:26.843Z,6.63
2023-04-18T18:52:53.750Z,5.18
2023-04-18T18:55:20.798Z,6.68
2023-04-18T18:57:47.762Z,5.50
2023-04-18T19:00:14.839Z,5.90
2023-04-18T19:02:42.031Z,5.65
2023-04-18T19:05:09.534Z,5.75
2023-04-18T19:07:36.431Z,5.47
2023-04-18T19:10:03.705Z,5.40
2023-04-18T19:12:31.321Z,5.40
2023-04-18T19:14:58.285Z,5.70
2023-04-18T19:17:25.288Z,6.75
2023-04-18T19:19:53.483Z,5.35
2023-04-18T19:22:20.597Z,5.20
2023-04-18T19:24:47.693Z,5.25
2023-04-18T19:27:14.620Z,5.38
2023-04-18T19:29:41.595Z,5.82
2023-04-18T19:32:08.797Z,5.85
2023-04-18T19:34:36.331Z,6.45
2023-04-18T19:37:03.866Z,5.90
2023-04-18T19:39:30.861Z,5.22
2023-04-18T19:41:57.785Z,5.40
2023-04-18T19:44:24.687Z,6.03
2023-04-18T19:46:51.605Z,5.38
2023-04-18T19:49:18.520Z,5.35
2023-04-18T19:51:45.491Z,5.93
2023-04-18T19:54:12.660Z,5.88
2023-04-18T19:56:39.623Z,5.03
2023-04-18T19:59:06.596Z,5.55
2023-04-18T20:01:33.558Z,4.47
2023-04-18T20:04:01.035Z,4.68
2023-04-18T20:06:28.834Z,4.85
2023-04-18T20:08:55.829Z,5.53
2023-04-18T20:11:26.118Z,4.70
2023-04-18T20:13:55.234Z,5.72
2023-04-18T20:16:22.453Z,5.50
2023-04-18T20:18:50.297Z,5.00
2023-04-18T20:21:17.278Z,5.38
2023-04-18T20:23:45.504Z,4.93
2023-04-18T20:26:12.541Z,5.82
2023-04-18T20:28:39.512Z,5.13
2023-04-18T20:31:06.500Z,5.97
2023-04-18T20:33:33.539Z,5.00
2023-04-18T20:36:00.561Z,5.32
2023-04-18T20:38:29.924Z,5.80
2023-04-18T20:41:08.162Z,6.38
2023-04-18T20:43:38.848Z,6.18
2023-04-18T20:46:07.154Z,7.38
2023-04-18T20:48:34.427Z,8.60
2023-04-18T20:51:01.536Z,8.23
2023-04-18T20:53:29.411Z,9.60
2023-04-18T20:55:56.371Z,9.55
2023-04-18T20:58:23.507Z,10.15
2023-04-18T21:00:50.503Z,11.10
2023-04-18T21:03:17.503Z,11.80
2023-04-18T21:05:45.191Z,9.43
2023-04-18T21:08:12.331Z,8.48
2023-04-18T21:10:39.994Z,8.15
2023-04-18T21:13:07.125Z,9.25
2023-04-18T21:15:36.025Z,7.90
2023-04-18T21:18:03.235Z,8.82
2023-04-18T21:20:30.257Z,8.45
2023-04-18T21:22:57.201Z,7.20
2023-04-18T21:25:24.100Z,7.35
2023-04-18T21:27:51.039Z,9.65
2023-04-18T21:30:18.455Z,6.88
2023-04-18T21:32:51.624Z,7.07
2023-04-18T21:35:19.844Z,6.22
2023-04-18T21:37:48.377Z,6.53
2023-04-18T21:40:15.612Z,6.28
2023-04-18T21:42:42.726Z,6.70
2023-04-18T21:45:11.194Z,6.85
2023-04-18T21:47:38.602Z,6.20
2023-04-18T21:50:06.284Z,8.15
2023-04-18T21:52:33.174Z,6.03
2023-04-18T21:55:00.248Z,6.32
2023-04-18T21:57:27.340Z,6.60
2023-04-18T21:59:58.082Z,5.38
2023-04-18T22:02:26.079Z,6.20
2023-04-18T22:04:53.069Z,5.57
2023-04-18T22:07:20.248Z,5.93
2023-04-18T22:09:47.269Z,6.35
2023-04-18T22:12:14.644Z,7.68
2023-04-18T22:14:44.698Z,5.03
2023-04-18T22:17:11.642Z,5.70
2023-04-18T22:19:38.623Z,6.13
2023-04-18T22:22:06.245Z,6.25
2023-04-18T22:24:33.202Z,6.68
2023-04-18T22:27:01.435Z,6.07
2023-04-18T22:29:28.361Z,5.70
2023-04-18T22:31:55.253Z,5.65
2023-04-18T22:34:22.211Z,6.40
2023-04-18T22:36:50.189Z,5.32
2023-04-18T22:39:17.160Z,5.60
2023-04-18T22:41:44.118Z,5.72
2023-04-18T22:44:11.066Z,6.32
2023-04-18T22:46:40.121Z,8.23
2023-04-18T22:49:07.559Z,7.00
2023-04-18T22:51:34.576Z,5.82
2023-04-18T22:54:01.556Z,5.53
2023-04-18T22:56:28.557Z,5.25
2023-04-18T22:58:55.498Z,5.60
2023-04-18T23:01:22.483Z,5.55
2023-04-18T23:03:49.559Z,5.78
2023-04-18T23:06:16.689Z,5.55
2023-04-18T23:08:43.743Z,5.97
2023-04-18T23:11:11.413Z,6.00
2023-04-18T23:13:38.355Z,5.68
2023-04-18T23:16:05.890Z,5.50
2023-04-18T23:18:32.862Z,5.00
2023-04-18T23:21:00.446Z,5.10
2023-04-18T23:23:27.341Z,5.85
2023-04-18T23:25:54.335Z,4.95
2023-04-18T23:28:21.564Z,5.30
2023-04-18T23:30:50.348Z,5.43
2023-04-18T23:33:17.270Z,5.10
2023-04-18T23:35:44.234Z,5.78
2023-04-18T23:38:11.362Z,6.00
2023-04-18T23:40:38.298Z,4.45
2023-04-18T23:43:05.294Z,5.03
2023-04-18T23:45:32.273Z,5.25
2023-04-18T23:47:59.165Z,5.65
2023-04-18T23:50:26.198Z,5.70
2023-04-18T23:52:53.105Z,5.53
2023-04-18T23:55:29.413Z,5.57
2023-04-18T23:57:56.321Z,5.38
